sensor_id;sensor_type;location;lat;lon;timestamp;P1;durP1;ratioP1;P2;durP2;ratioP2
52838;SDS011;39219;53.678;9.856;2024-02-15T00:01:41;40.08;;;16.48;;
52838;SDS011;39219;53.678;9.856;2024-02-15T00:04:08;43.88;;;16.55;;
52838;SDS011;39219;53.678;9.856;2024-02-15T00:06:35;40.83;;;16.30;;
52838;SDS011;39219;53.678;9.856;2024-02-15T00:09:03;42.72;;;16.63;;
52838;SDS011;39219;53.678;9.856;2024-02-15T00:11:30;44.15;;;16.90;;
52838;SDS011;39219;53.678;9.856;2024-02-15T00:13:57;37.95;;;15.55;;
52838;SDS011;39219;53.678;9.856;2024-02-15T00:16:24;41.40;;;16.50;;
52838;SDS011;39219;53.678;9.856;2024-02-15T00:18:52;37.08;;;15.70;;
52838;SDS011;39219;53.678;9.856;2024-02-15T00:21:20;40.08;;;16.17;;
52838;SDS011;39219;53.678;9.856;2024-02-15T00:23:46;40.40;;;15.93;;
52838;SDS011;39219;53.678;9.856;2024-02-15T00:26:14;37.85;;;14.77;;
52838;SDS011;39219;53.678;9.856;2024-02-15T00:28:41;39.15;;;14.60;;
52838;SDS011;39219;53.678;9.856;2024-02-15T00:31:08;37.72;;;15.15;;
52838;SDS011;39219;53.678;9.856;2024-02-15T00:33:34;38.08;;;14.60;;
52838;SDS011;39219;53.678;9.856;2024-02-15T00:36:01;40.28;;;15.30;;
52838;SDS011;39219;53.678;9.856;2024-02-15T00:38:29;36.85;;;14.95;;
52838;SDS011;39219;53.678;9.856;2024-02-15T00:40:56;39.28;;;15.18;;
52838;SDS011;39219;53.678;9.856;2024-02-15T00:43:26;40.45;;;15.45;;
52838;SDS011;39219;53.678;9.856;2024-02-15T00:45:52;35.55;;;14.60;;
52838;SDS011;39219;53.678;9.856;2024-02-15T00:48:19;43.20;;;16.00;;
52838;SDS011;39219;53.678;9.856;2024-02-15T00:50:46;39.58;;;16.30;;
52838;SDS011;39219;53.678;9.856;2024-02-15T00:53:13;40.67;;;16.65;;
52838;SDS011;39219;53.678;9.856;2024-02-15T00:55:41;41.75;;;16.52;;
52838;SDS011;39219;53.678;9.856;2024-02-15T00:58:08;44.42;;;18.00;;
52838;SDS011;39219;53.678;9.856;2024-02-15T01:00:36;45.10;;;17.55;;
52838;SDS011;39219;53.678;9.856;2024-02-15T01:03:03;47.80;;;17.80;;
52838;SDS011;39219;53.678;9.856;2024-02-15T01:05:30;45.45;;;18.35;;
52838;SDS011;39219;53.678;9.856;2024-02-15T01:07:56;46.72;;;18.05;;
52838;SDS011;39219;53.678;9.856;2024-02-15T01:10:23;40.85;;;17.15;;
52838;SDS011;39219;53.678;9.856;2024-02-15T01:12:49;43.08;;;17.50;;
52838;SDS011;39219;53.678;9.856;2024-02-15T01:15:16;47.08;;;18.60;;
52838;SDS011;39219;53.678;9.856;2024-02-15T01:17:47;46.88;;;18.52;;
52838;SDS011;39219;53.678;9.856;2024-02-15T01:20:14;45.22;;;16.85;;
52838;SDS011;39219;53.678;9.856;2024-02-15T01:22:41;46.17;;;17.52;;
52838;SDS011;39219;53.678;9.856;2024-02-15T01:25:09;44.80;;;17.77;;
52838;SDS011;39219;53.678;9.856;2024-02-15T01:27:36;43.63;;;17.10;;
52838;SDS011;39219;53.678;9.856;2024-02-15T01:30:02;44.67;;;17.25;;
52838;SDS011;39219;53.678;9.856;2024-02-15T01:32:30;43.70;;;17.42;;
52838;SDS011;39219;53.678;9.856;2024-02-15T01:34:58;42.75;;;16.83;;
52838;SDS011;39219;53.678;9.856;2024-02-15T01:37:24;40.75;;;16.20;;
52838;SDS011;39219;53.678;9.856;2024-02-15T01:39:51;40.17;;;16.95;;
52838;SDS011;39219;53.678;9.856;2024-02-15T01:42:17;43.80;;;16.85;;
52838;SDS011;39219;53.678;9.856;2024-02-15T01:44:44;39.65;;;16.50;;
52838;SDS011;39219;53.678;9.856;2024-02-15T01:47:12;41.58;;;16.95;;
52838;SDS011;39219;53.678;9.856;2024-02-15T01:49:39;47.85;;;18.27;;
52838;SDS011;39219;53.678;9.856;2024-02-15T01:52:07;48.95;;;18.90;;
52838;SDS011;39219;53.678;9.856;2024-02-15T01:54:35;45.33;;;17.90;;
52838;SDS011;39219;53.678;9.856;2024-02-15T01:57:03;45.20;;;17.90;;
52838;SDS011;39219;53.678;9.856;2024-02-15T01:59:30;46.42;;;18.65;;
52838;SDS011;39219;53.678;9.856;2024-02-15T02:01:57;45.10;;;18.55;;
52838;SDS011;39219;53.678;9.856;2024-02-15T02:04:24;45.22;;;18.98;;
52838;SDS011;39219;53.678;9.856;2024-02-15T02:06:51;44.67;;;18.25;;
52838;SDS011;39219;53.678;9.856;2024-02-15T02:09:25;43.10;;;17.73;;
52838;SDS011;39219;53.678;9.856;2024-02-15T02:11:52;45.72;;;18.65;;
52838;SDS011;39219;53.678;9.856;2024-02-15T02:14:18;48.28;;;19.58;;
52838;SDS011;39219;53.678;9.856;2024-02-15T02:16:45;50.67;;;21.17;;
52838;SDS011;39219;53.678;9.856;2024-02-15T02:19:12;47.65;;;18.67;;
52838;SDS011;39219;53.678;9.856;2024-02-15T02:21:39;45.58;;;18.90;;
52838;SDS011;39219;53.678;9.856;2024-02-15T02:24:08;51.22;;;20.40;;
52838;SDS011;39219;53.678;9.856;2024-02-15T02:26:40;49.55;;;19.42;;
52838;SDS011;39219;53.678;9.856;2024-02-15T02:29:06;52.33;;;20.17;;
52838;SDS011;39219;53.678;9.856;2024-02-15T02:31:34;46.58;;;19.00;;
52838;SDS011;39219;53.678;9.856;2024-02-15T02:34:00;48.67;;;19.85;;
52838;SDS011;39219;53.678;9.856;2024-02-15T02:36:27;48.88;;;18.73;;
52838;SDS011;39219;53.678;9.856;2024-02-15T02:38:54;47.60;;;19.48;;
52838;SDS011;39219;53.678;9.856;2024-02-15T02:41:25;48.08;;;19.05;;
52838;SDS011;39219;53.678;9.856;2024-02-15T02:43:53;51.17;;;19.95;;
52838;SDS011;39219;53.678;9.856;2024-02-15T02:46:19;49.72;;;18.98;;
52838;SDS011;39219;53.678;9.856;2024-02-15T02:48:46;46.95;;;18.88;;
52838;SDS011;39219;53.678;9.856;2024-02-15T02:51:12;48.90;;;18.85;;
52838;SDS011;39219;53.678;9.856;2024-02-15T02:53:39;43.70;;;18.40;;
52838;SDS011;39219;53.678;9.856;2024-02-15T02:56:05;44.80;;;17.60;;
52838;SDS011;39219;53.678;9.856;2024-02-15T02:58:33;47.10;;;17.73;;
52838;SDS011;39219;53.678;9.856;2024-02-15T03:01:01;42.65;;;17.05;;
52838;SDS011;39219;53.678;9.856;2024-02-15T03:03:27;45.25;;;18.10;;
52838;SDS011;39219;53.678;9.856;2024-02-15T03:05:54;46.55;;;17.15;;
52838;SDS011;39219;53.678;9.856;2024-02-15T03:08:20;42.88;;;17.70;;
52838;SDS011;39219;53.678;9.856;2024-02-15T03:10:47;44.35;;;17.52;;
52838;SDS011;39219;53.678;9.856;2024-02-15T03:13:14;44.72;;;17.40;;
52838;SDS011;39219;53.678;9.856;2024-02-15T03:15:40;45.05;;;17.65;;
52838;SDS011;39219;53.678;9.856;2024-02-15T03:18:08;45.53;;;18.35;;
52838;SDS011;39219;53.678;9.856;2024-02-15T03:20:36;43.40;;;17.52;;
52838;SDS011;39219;53.678;9.856;2024-02-15T03:23:03;45.70;;;17.50;;
52838;SDS011;39219;53.678;9.856;2024-02-15T03:25:30;44.20;;;16.38;;
52838;SDS011;39219;53.678;9.856;2024-02-15T03:27:57;43.78;;;17.52;;
52838;SDS011;39219;53.678;9.856;2024-02-15T03:30:24;43.13;;;16.75;;
52838;SDS011;39219;53.678;9.856;2024-02-15T03:32:54;38.85;;;15.88;;
52838;SDS011;39219;53.678;9.856;2024-02-15T03:35:25;40.95;;;16.33;;
52838;SDS011;39219;53.678;9.856;2024-02-15T03:37:56;38.60;;;16.17;;
52838;SDS011;39219;53.678;9.856;2024-02-15T03:40:23;40.28;;;16.15;;
52838;SDS011;39219;53.678;9.856;2024-02-15T03:42:51;39.58;;;16.52;;
52838;SDS011;39219;53.678;9.856;2024-02-15T03:45:18;40.63;;;15.93;;
52838;SDS011;39219;53.678;9.856;2024-02-15T03:47:45;42.40;;;15.90;;
52838;SDS011;39219;53.678;9.856;2024-02-15T03:50:12;44.22;;;16.35;;
52838;SDS011;39219;53.678;9.856;2024-02-15T03:52:41;41.83;;;16.60;;
52838;SDS011;39219;53.678;9.856;2024-02-15T03:55:06;43.25;;;15.85;;
52838;SDS011;39219;53.678;9.856;2024-02-15T03:57:33;44.63;;;15.98;;
52838;SDS011;39219;53.678;9.856;2024-02-15T04:00:00;45.85;;;17.20;;
52838;SDS011;39219;53.678;9.856;2024-02-15T04:02:26;48.83;;;17.35;;
52838;SDS011;39219;53.678;9.856;2024-02-15T04:04:54;45.70;;;17.63;;
52838;SDS011;39219;53.678;9.856;2024-02-15T04:07:21;48.30;;;18.88;;
52838;SDS011;39219;53.678;9.856;2024-02-15T04:09:50;47.65;;;18.05;;
52838;SDS011;39219;53.678;9.856;2024-02-15T04:12:17;48.35;;;18.25;;
52838;SDS011;39219;53.678;9.856;2024-02-15T04:14:44;51.22;;;18.13;;
52838;SDS011;39219;53.678;9.856;2024-02-15T04:17:11;47.08;;;17.38;;
52838;SDS011;39219;53.678;9.856;2024-02-15T04:19:39;50.67;;;18.27;;
52838;SDS011;39219;53.678;9.856;2024-02-15T04:22:05;44.83;;;17.40;;
52838;SDS011;39219;53.678;9.856;2024-02-15T04:24:32;46.95;;;17.05;;
52838;SDS011;39219;53.678;9.856;2024-02-15T04:27:01;45.72;;;16.95;;
52838;SDS011;39219;53.678;9.856;2024-02-15T04:29:27;46.80;;;18.00;;
52838;SDS011;39219;53.678;9.856;2024-02-15T04:31:53;49.90;;;19.05;;
52838;SDS011;39219;53.678;9.856;2024-02-15T04:34:20;48.50;;;18.63;;
52838;SDS011;39219;53.678;9.856;2024-02-15T04:36:47;49.63;;;17.63;;
52838;SDS011;39219;53.678;9.856;2024-02-15T04:39:15;52.20;;;18.38;;
52838;SDS011;39219;53.678;9.856;2024-02-15T04:41:49;48.47;;;19.38;;
52838;SDS011;39219;53.678;9.856;2024-02-15T04:44:17;46.80;;;18.10;;
52838;SDS011;39219;53.678;9.856;2024-02-15T04:46:45;51.45;;;18.75;;
52838;SDS011;39219;53.678;9.856;2024-02-15T04:49:11;50.67;;;18.48;;
52838;SDS011;39219;53.678;9.856;2024-02-15T04:51:38;45.55;;;17.10;;
52838;SDS011;39219;53.678;9.856;2024-02-15T04:54:06;47.38;;;18.77;;
52838;SDS011;39219;53.678;9.856;2024-02-15T04:56:33;48.50;;;18.77;;
52838;SDS011;39219;53.678;9.856;2024-02-15T04:59:01;45.30;;;17.95;;
52838;SDS011;39219;53.678;9.856;2024-02-15T05:01:28;47.17;;;18.98;;
52838;SDS011;39219;53.678;9.856;2024-02-15T05:03:56;44.55;;;17.73;;
52838;SDS011;39219;53.678;9.856;2024-02-15T05:06:23;44.97;;;18.05;;
52838;SDS011;39219;53.678;9.856;2024-02-15T05:08:51;49.15;;;18.00;;
52838;SDS011;39219;53.678;9.856;2024-02-15T05:11:17;41.53;;;17.10;;
52838;SDS011;39219;53.678;9.856;2024-02-15T05:13:44;47.88;;;18.20;;
52838;SDS011;39219;53.678;9.856;2024-02-15T05:16:11;48.80;;;18.23;;
52838;SDS011;39219;53.678;9.856;2024-02-15T05:18:39;46.10;;;17.60;;
52838;SDS011;39219;53.678;9.856;2024-02-15T05:21:06;43.25;;;17.02;;
52838;SDS011;39219;53.678;9.856;2024-02-15T05:23:34;52.03;;;18.58;;
52838;SDS011;39219;53.678;9.856;2024-02-15T05:26:01;48.28;;;18.63;;
52838;SDS011;39219;53.678;9.856;2024-02-15T05:28:28;44.17;;;17.15;;
52838;SDS011;39219;53.678;9.856;2024-02-15T05:31:08;49.08;;;17.63;;
52838;SDS011;39219;53.678;9.856;2024-02-15T05:33:35;47.45;;;17.73;;
52838;SDS011;39219;53.678;9.856;2024-02-15T05:36:05;53.85;;;18.00;;
52838;SDS011;39219;53.678;9.856;2024-02-15T05:38:33;50.38;;;18.33;;
52838;SDS011;39219;53.678;9.856;2024-02-15T05:41:00;53.55;;;18.08;;
52838;SDS011;39219;53.678;9.856;2024-02-15T05:43:28;49.17;;;18.35;;
52838;SDS011;39219;53.678;9.856;2024-02-15T05:45:55;52.30;;;18.75;;
52838;SDS011;39219;53.678;9.856;2024-02-15T05:48:23;50.15;;;18.40;;
52838;SDS011;39219;53.678;9.856;2024-02-15T05:50:49;51.22;;;18.50;;
52838;SDS011;39219;53.678;9.856;2024-02-15T05:53:17;51.83;;;17.90;;
52838;SDS011;39219;53.678;9.856;2024-02-15T05:55:43;53.78;;;18.88;;
52838;SDS011;39219;53.678;9.856;2024-02-15T05:58:10;48.67;;;18.20;;
52838;SDS011;39219;53.678;9.856;2024-02-15T06:00:38;49.33;;;18.38;;
52838;SDS011;39219;53.678;9.856;2024-02-15T06:03:06;50.63;;;18.52;;
52838;SDS011;39219;53.678;9.856;2024-02-15T06:05:34;51.45;;;18.08;;
52838;SDS011;39219;53.678;9.856;2024-02-15T06:08:00;45.47;;;17.67;;
52838;SDS011;39219;53.678;9.856;2024-02-15T06:10:28;50.25;;;18.15;;
52838;SDS011;39219;53.678;9.856;2024-02-15T06:12:56;47.42;;;18.00;;
52838;SDS011;39219;53.678;9.856;2024-02-15T06:15:22;49.08;;;17.70;;
52838;SDS011;39219;53.678;9.856;2024-02-15T06:17:49;52.92;;;18.92;;
52838;SDS011;39219;53.678;9.856;2024-02-15T06:20:15;49.15;;;17.75;;
52838;SDS011;39219;53.678;9.856;2024-02-15T06:22:43;50.35;;;18.05;;
52838;SDS011;39219;53.678;9.856;2024-02-15T06:25:09;48.65;;;17.38;;
52838;SDS011;39219;53.678;9.856;2024-02-15T06:27:37;50.10;;;17.80;;
52838;SDS011;39219;53.678;9.856;2024-02-15T06:30:06;47.53;;;17.77;;
52838;SDS011;39219;53.678;9.856;2024-02-15T06:32:51;49.42;;;18.48;;
52838;SDS011;39219;53.678;9.856;2024-02-15T06:35:35;52.80;;;18.42;;
52838;SDS011;39219;53.678;9.856;2024-02-15T06:38:19;49.22;;;17.80;;
52838;SDS011;39219;53.678;9.856;2024-02-15T06:41:03;50.60;;;18.20;;
52838;SDS011;39219;53.678;9.856;2024-02-15T06:43:31;49.60;;;16.95;;
52838;SDS011;39219;53.678;9.856;2024-02-15T06:45:58;49.67;;;18.35;;
52838;SDS011;39219;53.678;9.856;2024-02-15T06:48:24;50.92;;;18.13;;
52838;SDS011;39219;53.678;9.856;2024-02-15T06:50:51;52.65;;;18.27;;
52838;SDS011;39219;53.678;9.856;2024-02-15T06:53:17;48.90;;;17.65;;
52838;SDS011;39219;53.678;9.856;2024-02-15T06:55:45;49.58;;;18.75;;
52838;SDS011;39219;53.678;9.856;2024-02-15T06:58:13;54.63;;;19.60;;
52838;SDS011;39219;53.678;9.856;2024-02-15T07:00:42;54.40;;;19.33;;
52838;SDS011;39219;53.678;9.856;2024-02-15T07:03:08;57.00;;;20.25;;
52838;SDS011;39219;53.678;9.856;2024-02-15T07:05:35;58.05;;;19.88;;
52838;SDS011;39219;53.678;9.856;2024-02-15T07:08:03;55.33;;;19.60;;
52838;SDS011;39219;53.678;9.856;2024-02-15T07:10:30;51.00;;;19.10;;
52838;SDS011;39219;53.678;9.856;2024-02-15T07:12:57;66.15;;;21.25;;
52838;SDS011;39219;53.678;9.856;2024-02-15T07:15:24;59.08;;;20.65;;
52838;SDS011;39219;53.678;9.856;2024-02-15T07:17:52;61.97;;;20.08;;
52838;SDS011;39219;53.678;9.856;2024-02-15T07:20:19;55.80;;;19.25;;
52838;SDS011;39219;53.678;9.856;2024-02-15T07:22:48;61.50;;;20.27;;
52838;SDS011;39219;53.678;9.856;2024-02-15T07:25:14;68.80;;;22.02;;
52838;SDS011;39219;53.678;9.856;2024-02-15T07:27:40;67.78;;;22.70;;
52838;SDS011;39219;53.678;9.856;2024-02-15T07:30:07;65.53;;;22.55;;
52838;SDS011;39219;53.678;9.856;2024-02-15T07:32:34;65.90;;;21.67;;
52838;SDS011;39219;53.678;9.856;2024-02-15T07:35:03;68.60;;;23.20;;
52838;SDS011;39219;53.678;9.856;2024-02-15T07:37:32;62.92;;;21.55;;
52838;SDS011;39219;53.678;9.856;2024-02-15T07:39:59;71.60;;;22.90;;
52838;SDS011;39219;53.678;9.856;2024-02-15T07:42:26;65.57;;;22.15;;
52838;SDS011;39219;53.678;9.856;2024-02-15T07:44:52;67.88;;;22.30;;
52838;SDS011;39219;53.678;9.856;2024-02-15T07:47:19;64.65;;;20.55;;
52838;SDS011;39219;53.678;9.856;2024-02-15T07:49:49;60.33;;;20.48;;
52838;SDS011;39219;53.678;9.856;2024-02-15T07:52:16;65.47;;;21.02;;
52838;SDS011;39219;53.678;9.856;2024-02-15T07:54:44;55.30;;;19.48;;
52838;SDS011;39219;53.678;9.856;2024-02-15T07:57:10;51.80;;;19.15;;
52838;SDS011;39219;53.678;9.856;2024-02-15T07:59:37;51.92;;;19.17;;
52838;SDS011;39219;53.678;9.856;2024-02-15T08:02:04;49.92;;;17.98;;
52838;SDS011;39219;53.678;9.856;2024-02-15T08:04:31;48.88;;;18.17;;
52838;SDS011;39219;53.678;9.856;2024-02-15T08:06:59;43.55;;;17.10;;
52838;SDS011;39219;53.678;9.856;2024-02-15T08:09:27;42.22;;;15.90;;
52838;SDS011;39219;53.678;9.856;2024-02-15T08:11:53;44.30;;;15.27;;
52838;SDS011;39219;53.678;9.856;2024-02-15T08:14:21;37.40;;;14.85;;
52838;SDS011;39219;53.678;9.856;2024-02-15T08:16:47;36.95;;;14.32;;
52838;SDS011;39219;53.678;9.856;2024-02-15T08:19:13;36.67;;;13.93;;
52838;SDS011;39219;53.678;9.856;2024-02-15T08:21:40;37.63;;;14.73;;
52838;SDS011;39219;53.678;9.856;2024-02-15T08:24:07;37.20;;;14.15;;
52838;SDS011;39219;53.678;9.856;2024-02-15T08:26:36;38.90;;;14.80;;
52838;SDS011;39219;53.678;9.856;2024-02-15T08:29:04;40.50;;;14.40;;
52838;SDS011;39219;53.678;9.856;2024-02-15T08:31:32;36.63;;;14.23;;
52838;SDS011;39219;53.678;9.856;2024-02-15T08:33:58;38.85;;;14.15;;
52838;SDS011;39219;53.678;9.856;2024-02-15T08:36:25;41.55;;;14.85;;
52838;SDS011;39219;53.678;9.856;2024-02-15T08:38:52;38.15;;;14.90;;
52838;SDS011;39219;53.678;9.856;2024-02-15T08:41:19;36.30;;;13.57;;
52838;SDS011;39219;53.678;9.856;2024-02-15T08:43:47;38.42;;;14.82;;
52838;SDS011;39219;53.678;9.856;2024-02-15T08:46:14;38.38;;;15.30;;
52838;SDS011;39219;53.678;9.856;2024-02-15T08:48:40;42.97;;;16.15;;
52838;SDS011;39219;53.678;9.856;2024-02-15T08:51:08;46.22;;;16.52;;
52838;SDS011;39219;53.678;9.856;2024-02-15T08:53:35;40.30;;;15.38;;
52838;SDS011;39219;53.678;9.856;2024-02-15T08:56:05;44.38;;;16.45;;
52838;SDS011;39219;53.678;9.856;2024-02-15T08:58:34;43.30;;;15.48;;
52838;SDS011;39219;53.678;9.856;2024-02-15T09:01:02;42.67;;;16.63;;
52838;SDS011;39219;53.678;9.856;2024-02-15T09:03:29;41.40;;;16.25;;
52838;SDS011;39219;53.678;9.856;2024-02-15T09:05:56;40.50;;;15.88;;
52838;SDS011;39219;53.678;9.856;2024-02-15T09:08:24;44.22;;;15.88;;
52838;SDS011;39219;53.678;9.856;2024-02-15T09:10:50;41.08;;;15.65;;
52838;SDS011;39219;53.678;9.856;2024-02-15T09:13:17;41.90;;;15.00;;
52838;SDS011;39219;53.678;9.856;2024-02-15T09:15:44;40.25;;;15.50;;
52838;SDS011;39219;53.678;9.856;2024-02-15T09:18:13;44.03;;;15.02;;
52838;SDS011;39219;53.678;9.856;2024-02-15T09:20:40;40.38;;;14.70;;
52838;SDS011;39219;53.678;9.856;2024-02-15T09:23:09;36.33;;;14.30;;
52838;SDS011;39219;53.678;9.856;2024-02-15T09:25:38;41.60;;;14.52;;
52838;SDS011;39219;53.678;9.856;2024-02-15T09:28:05;38.25;;;14.50;;
52838;SDS011;39219;53.678;9.856;2024-02-15T09:30:32;36.83;;;14.00;;
52838;SDS011;39219;53.678;9.856;2024-02-15T09:33:00;35.63;;;14.25;;
52838;SDS011;39219;53.678;9.856;2024-02-15T09:35:30;37.25;;;14.70;;
52838;SDS011;39219;53.678;9.856;2024-02-15T09:37:56;36.00;;;15.23;;
52838;SDS011;39219;53.678;9.856;2024-02-15T09:40:23;35.03;;;14.82;;
52838;SDS011;39219;53.678;9.856;2024-02-15T09:42:51;37.20;;;15.38;;
52838;SDS011;39219;53.678;9.856;2024-02-15T09:45:18;35.40;;;15.30;;
52838;SDS011;39219;53.678;9.856;2024-02-15T09:47:46;39.83;;;15.98;;
52838;SDS011;39219;53.678;9.856;2024-02-15T09:50:15;35.78;;;15.05;;
52838;SDS011;39219;53.678;9.856;2024-02-15T09:52:45;36.25;;;15.43;;
52838;SDS011;39219;53.678;9.856;2024-02-15T09:55:12;37.20;;;15.45;;
52838;SDS011;39219;53.678;9.856;2024-02-15T09:57:40;40.45;;;16.13;;
52838;SDS011;39219;53.678;9.856;2024-02-15T10:00:09;38.22;;;16.10;;
52838;SDS011;39219;53.678;9.856;2024-02-15T10:02:38;34.28;;;15.38;;
52838;SDS011;39219;53.678;9.856;2024-02-15T10:05:06;35.67;;;14.50;;
52838;SDS011;39219;53.678;9.856;2024-02-15T10:07:36;38.90;;;15.95;;
52838;SDS011;39219;53.678;9.856;2024-02-15T10:10:15;31.08;;;13.82;;
52838;SDS011;39219;53.678;9.856;2024-02-15T10:12:43;31.23;;;14.23;;
52838;SDS011;39219;53.678;9.856;2024-02-15T10:15:14;28.35;;;13.27;;
52838;SDS011;39219;53.678;9.856;2024-02-15T10:17:53;29.08;;;13.70;;
52838;SDS011;39219;53.678;9.856;2024-02-15T10:20:20;30.58;;;14.15;;
52838;SDS011;39219;53.678;9.856;2024-02-15T10:22:50;31.55;;;14.10;;
52838;SDS011;39219;53.678;9.856;2024-02-15T10:25:19;32.42;;;14.57;;
52838;SDS011;39219;53.678;9.856;2024-02-15T10:27:47;34.38;;;15.73;;
52838;SDS011;39219;53.678;9.856;2024-02-15T10:30:14;38.83;;;16.90;;
52838;SDS011;39219;53.678;9.856;2024-02-15T10:32:42;37.83;;;17.02;;
52838;SDS011;39219;53.678;9.856;2024-02-15T10:35:09;35.80;;;16.75;;
52838;SDS011;39219;53.678;9.856;2024-02-15T10:37:40;34.55;;;15.52;;
52838;SDS011;39219;53.678;9.856;2024-02-15T10:40:07;38.92;;;17.10;;
52838;SDS011;39219;53.678;9.856;2024-02-15T10:42:35;37.50;;;17.58;;
52838;SDS011;39219;53.678;9.856;2024-02-15T10:45:03;34.90;;;16.83;;
52838;SDS011;39219;53.678;9.856;2024-02-15T10:47:30;37.60;;;17.58;;
52838;SDS011;39219;53.678;9.856;2024-02-15T10:49:57;39.03;;;16.73;;
52838;SDS011;39219;53.678;9.856;2024-02-15T10:52:24;33.80;;;16.63;;
52838;SDS011;39219;53.678;9.856;2024-02-15T10:55:03;37.33;;;17.20;;
52838;SDS011;39219;53.678;9.856;2024-02-15T10:57:34;35.55;;;16.60;;
52838;SDS011;39219;53.678;9.856;2024-02-15T11:00:06;38.88;;;18.20;;
52838;SDS011;39219;53.678;9.856;2024-02-15T11:02:37;39.17;;;17.75;;
52838;SDS011;39219;53.678;9.856;2024-02-15T11:05:06;37.00;;;18.58;;
52838;SDS011;39219;53.678;9.856;2024-02-15T11:07:38;37.33;;;18.65;;
52838;SDS011;39219;53.678;9.856;2024-02-15T11:10:05;39.58;;;18.35;;
52838;SDS011;39219;53.678;9.856;2024-02-15T11:12:35;37.97;;;17.52;;
52838;SDS011;39219;53.678;9.856;2024-02-15T11:15:05;37.05;;;17.58;;
52838;SDS011;39219;53.678;9.856;2024-02-15T11:17:45;38.22;;;18.88;;
52838;SDS011;39219;53.678;9.856;2024-02-15T11:23:24;37.67;;;18.17;;
52838;SDS011;39219;53.678;9.856;2024-02-15T11:25:51;37.63;;;18.42;;
52838;SDS011;39219;53.678;9.856;2024-02-15T11:28:35;39.55;;;18.73;;
52838;SDS011;39219;53.678;9.856;2024-02-15T11:31:05;37.10;;;18.17;;
52838;SDS011;39219;53.678;9.856;2024-02-15T11:33:34;40.30;;;19.23;;
52838;SDS011;39219;53.678;9.856;2024-02-15T11:36:02;42.63;;;18.98;;
52838;SDS011;39219;53.678;9.856;2024-02-15T11:38:30;40.58;;;20.25;;
52838;SDS011;39219;53.678;9.856;2024-02-15T11:41:01;42.30;;;19.77;;
52838;SDS011;39219;53.678;9.856;2024-02-15T11:43:48;39.08;;;19.65;;
52838;SDS011;39219;53.678;9.856;2024-02-15T11:46:21;44.75;;;20.80;;
52838;SDS011;39219;53.678;9.856;2024-02-15T11:48:50;45.85;;;20.90;;
52838;SDS011;39219;53.678;9.856;2024-02-15T11:51:30;42.00;;;19.90;;
52838;SDS011;39219;53.678;9.856;2024-02-15T11:54:01;43.00;;;20.60;;
52838;SDS011;39219;53.678;9.856;2024-02-15T11:56:32;42.53;;;20.63;;
52838;SDS011;39219;53.678;9.856;2024-02-15T11:59:16;44.85;;;20.95;;
52838;SDS011;39219;53.678;9.856;2024-02-15T12:01:55;46.83;;;22.33;;
52838;SDS011;39219;53.678;9.856;2024-02-15T12:04:48;42.63;;;22.25;;
52838;SDS011;39219;53.678;9.856;2024-02-15T12:07:32;45.30;;;21.90;;
52838;SDS011;39219;53.678;9.856;2024-02-15T12:10:17;48.30;;;22.77;;
52838;SDS011;39219;53.678;9.856;2024-02-15T12:13:01;44.40;;;21.42;;
52838;SDS011;39219;53.678;9.856;2024-02-15T12:15:58;42.40;;;20.95;;
52838;SDS011;39219;53.678;9.856;2024-02-15T12:18:44;44.85;;;20.77;;
52838;SDS011;39219;53.678;9.856;2024-02-15T12:21:13;44.00;;;21.63;;
52838;SDS011;39219;53.678;9.856;2024-02-15T12:23:42;40.35;;;19.52;;
52838;SDS011;39219;53.678;9.856;2024-02-15T12:26:10;40.53;;;19.73;;
52838;SDS011;39219;53.678;9.856;2024-02-15T12:28:39;38.67;;;20.08;;
52838;SDS011;39219;53.678;9.856;2024-02-15T12:31:08;38.78;;;19.38;;
52838;SDS011;39219;53.678;9.856;2024-02-15T12:33:38;37.65;;;18.92;;
52838;SDS011;39219;53.678;9.856;2024-02-15T12:36:06;40.28;;;19.63;;
52838;SDS011;39219;53.678;9.856;2024-02-15T12:38:33;40.60;;;19.75;;
52838;SDS011;39219;53.678;9.856;2024-02-15T12:41:02;40.03;;;18.67;;
52838;SDS011;39219;53.678;9.856;2024-02-15T12:43:29;38.47;;;18.77;;
52838;SDS011;39219;53.678;9.856;2024-02-15T12:45:55;37.50;;;18.20;;
52838;SDS011;39219;53.678;9.856;2024-02-15T12:48:22;33.83;;;17.17;;
52838;SDS011;39219;53.678;9.856;2024-02-15T12:50:49;37.65;;;17.52;;
52838;SDS011;39219;53.678;9.856;2024-02-15T12:53:21;32.70;;;16.83;;
52838;SDS011;39219;53.678;9.856;2024-02-15T12:55:52;33.55;;;16.58;;
52838;SDS011;39219;53.678;9.856;2024-02-15T12:58:21;33.38;;;16.98;;
52838;SDS011;39219;53.678;9.856;2024-02-15T13:00:49;32.58;;;16.73;;
52838;SDS011;39219;53.678;9.856;2024-02-15T13:03:16;29.92;;;16.65;;
52838;SDS011;39219;53.678;9.856;2024-02-15T13:05:43;32.05;;;16.85;;
52838;SDS011;39219;53.678;9.856;2024-02-15T13:08:10;31.92;;;16.83;;
52838;SDS011;39219;53.678;9.856;2024-02-15T13:10:39;32.97;;;16.80;;
52838;SDS011;39219;53.678;9.856;2024-02-15T13:13:06;32.10;;;16.35;;
52838;SDS011;39219;53.678;9.856;2024-02-15T13:15:34;28.42;;;15.15;;
52838;SDS011;39219;53.678;9.856;2024-02-15T13:18:02;32.42;;;16.25;;
52838;SDS011;39219;53.678;9.856;2024-02-15T13:20:29;30.15;;;16.15;;
52838;SDS011;39219;53.678;9.856;2024-02-15T13:22:57;29.88;;;14.93;;
52838;SDS011;39219;53.678;9.856;2024-02-15T13:25:27;28.83;;;15.38;;
52838;SDS011;39219;53.678;9.856;2024-02-15T13:27:56;28.10;;;14.23;;
52838;SDS011;39219;53.678;9.856;2024-02-15T13:30:22;25.55;;;14.95;;
52838;SDS011;39219;53.678;9.856;2024-02-15T13:32:52;28.70;;;15.13;;
52838;SDS011;39219;53.678;9.856;2024-02-15T13:35:19;30.05;;;14.52;;
52838;SDS011;39219;53.678;9.856;2024-02-15T13:37:49;31.13;;;15.98;;
52838;SDS011;39219;53.678;9.856;2024-02-15T13:40:17;30.67;;;14.52;;
52838;SDS011;39219;53.678;9.856;2024-02-15T13:42:47;28.98;;;15.05;;
52838;SDS011;39219;53.678;9.856;2024-02-15T13:45:19;28.33;;;15.02;;
52838;SDS011;39219;53.678;9.856;2024-02-15T13:47:47;28.55;;;14.95;;
52838;SDS011;39219;53.678;9.856;2024-02-15T13:50:15;26.08;;;14.73;;
52838;SDS011;39219;53.678;9.856;2024-02-15T13:52:42;28.17;;;14.85;;
52838;SDS011;39219;53.678;9.856;2024-02-15T13:55:10;30.50;;;16.08;;
52838;SDS011;39219;53.678;9.856;2024-02-15T13:57:37;31.50;;;15.70;;
52838;SDS011;39219;53.678;9.856;2024-02-15T14:00:04;28.75;;;16.17;;
52838;SDS011;39219;53.678;9.856;2024-02-15T14:02:39;30.10;;;15.40;;
52838;SDS011;39219;53.678;9.856;2024-02-15T14:05:06;28.77;;;15.52;;
52838;SDS011;39219;53.678;9.856;2024-02-15T14:07:34;28.85;;;16.85;;
52838;SDS011;39219;53.678;9.856;2024-02-15T14:10:01;28.65;;;16.17;;
52838;SDS011;39219;53.678;9.856;2024-02-15T14:12:28;28.08;;;16.45;;
52838;SDS011;39219;53.678;9.856;2024-02-15T14:14:55;32.17;;;16.50;;
52838;SDS011;39219;53.678;9.856;2024-02-15T14:17:21;30.75;;;16.42;;
52838;SDS011;39219;53.678;9.856;2024-02-15T14:19:49;29.38;;;16.70;;
52838;SDS011;39219;53.678;9.856;2024-02-15T14:22:15;28.15;;;16.20;;
52838;SDS011;39219;53.678;9.856;2024-02-15T14:24:42;29.58;;;17.30;;
52838;SDS011;39219;53.678;9.856;2024-02-15T14:27:09;32.63;;;18.08;;
52838;SDS011;39219;53.678;9.856;2024-02-15T14:29:36;30.15;;;16.75;;
52838;SDS011;39219;53.678;9.856;2024-02-15T14:32:09;30.00;;;15.98;;